Time;durP1;ratioP1;P1;durP2;ratioP2;P2;SDS_P1;SDS_P2;PMS_P1;PMS_P2;Temp;Humidity;BMP_temperature;BMP_pressure;BME280_temperature;BME280_humidity;BME280_pressure;Samples;Min_cycle;Max_cycle;Signal;HPM_P1;HPM_P2
2023/04/30 00:01:20;;;;;;;1.00;1.00;;;;;;;12.39;84.07;95588.72;4375715;32;20244;-60
2023/04/30 00:03:47;;;;;;;1.93;1.83;;;;;;;12.39;84.14;95597.50;4383570;32;20207;-60
2023/04/30 00:06:15;;;;;;;1.70;1.23;;;;;;;12.44;83.79;95585.97;4368300;32;20211;-59
2023/04/30 00:08:40;;;;;;;0.63;0.63;;;;;;;12.46;83.64;95588.34;4361655;32;20180;-60
2023/04/30 00:11:08;;;;;;;1.53;1.43;;;;;;;12.36;84.22;95584.78;4346061;32;20199;-60
2023/04/30 00:13:37;;;;;;;2.03;1.93;;;;;;;12.41;84.05;95585.78;4351936;32;20226;-59
2023/04/30 00:16:03;;;;;;;1.33;1.33;;;;;;;12.43;84.12;95589.72;4317714;32;20256;-62
2023/04/30 00:18:30;;;;;;;1.20;1.20;;;;;;;12.21;84.48;95585.09;4362934;32;20193;-60
2023/04/30 00:20:57;;;;;;;1.10;1.10;;;;;;;12.34;84.31;95594.94;4349139;32;20219;-60
2023/04/30 00:23:24;;;;;;;1.57;1.57;;;;;;;12.33;84.11;95604.00;4366911;32;20258;-59
2023/04/30 00:25:52;;;;;;;1.43;1.43;;;;;;;12.24;84.43;95597.81;4367671;32;20242;-59
2023/04/30 00:28:19;;;;;;;2.00;1.73;;;;;;;12.28;84.77;95597.97;4350665;32;20219;-60
2023/04/30 00:30:45;;;;;;;1.23;1.23;;;;;;;12.29;85.00;95607.53;4358410;32;20196;-60
2023/04/30 00:33:16;;;;;;;1.83;1.73;;;;;;;12.41;84.38;95607.06;4358579;32;20208;-60
2023/04/30 00:35:41;;;;;;;1.30;1.30;;;;;;;12.16;85.20;95616.31;4361023;32;20260;-60
2023/04/30 00:38:10;;;;;;;1.37;1.30;;;;;;;12.19;85.29;95605.09;4343270;32;20251;-60
2023/04/30 00:40:37;;;;;;;1.50;1.40;;;;;;;12.18;85.23;95606.19;4327044;32;20247;-60
2023/04/30 00:43:04;;;;;;;1.60;1.50;;;;;;;12.15;85.35;95610.22;4321769;32;20189;-59
2023/04/30 00:45:29;;;;;;;1.57;1.57;;;;;;;12.18;85.26;95606.97;4340240;32;20207;-59
2023/04/30 00:47:56;;;;;;;1.73;1.63;;;;;;;12.19;85.46;95607.75;4343201;32;20199;-61
2023/04/30 00:50:23;;;;;;;2.43;2.07;;;;;;;12.10;85.84;95606.84;4344512;32;20200;-60
2023/04/30 00:52:51;;;;;;;1.13;1.13;;;;;;;12.15;85.95;95606.78;4376879;32;20238;-61
2023/04/30 00:55:20;;;;;;;1.37;1.37;;;;;;;12.22;85.66;95610.63;4371141;32;20187;-60
2023/04/30 00:57:47;;;;;;;1.03;1.03;;;;;;;12.21;85.21;95611.69;4367924;32;20196;-60
2023/04/30 01:00:15;;;;;;;0.90;0.90;;;;;;;12.18;85.20;95611.50;4371179;32;20237;-60
2023/04/30 01:02:42;;;;;;;1.70;1.60;;;;;;;12.14;85.40;95613.97;4365707;32;20269;-60
2023/04/30 01:05:10;;;;;;;1.77;1.67;;;;;;;11.92;86.07;95606.66;4372694;32;20180;-60
2023/04/30 01:07:40;;;;;;;1.57;1.53;;;;;;;11.97;86.15;95613.75;4297177;32;20181;-60
2023/04/30 01:10:06;;;;;;;2.10;1.93;;;;;;;12.13;85.50;95612.38;4342830;32;20223;-60
2023/04/30 01:12:55;;;;;;;2.07;1.97;;;;;;;12.10;85.28;95618.28;4361955;32;20208;-59
2023/04/30 01:15:52;;;;;;;1.63;1.53;;;;;;;11.99;85.78;95615.03;4360655;32;20255;-60
2023/04/30 01:18:37;;;;;;;1.53;1.43;;;;;;;12.05;85.41;95626.37;4346858;32;20211;-60
2023/04/30 01:21:08;;;;;;;2.03;1.93;;;;;;;12.09;85.60;95623.91;4349548;32;20267;-60
2023/04/30 01:23:53;;;;;;;1.83;1.53;;;;;;;12.11;85.27;95625.19;4365161;32;20204;-60
2023/04/30 01:26:33;;;;;;;0.93;0.93;;;;;;;11.89;86.65;95619.75;4344424;32;20237;-60
2023/04/30 01:29:00;;;;;;;3.43;1.83;;;;;;;11.81;87.04;95621.22;4372472;32;20183;-61
2023/04/30 01:31:28;;;;;;;2.00;1.80;;;;;;;11.98;86.31;95623.31;4347167;32;20181;-60
2023/04/30 01:33:54;;;;;;;1.40;1.40;;;;;;;11.86;86.61;95626.44;4357254;32;20192;-59
2023/04/30 01:36:54;;;;;;;1.13;1.13;;;;;;;11.99;86.32;95630.22;4344151;32;20192;-60
2023/04/30 01:39:49;;;;;;;2.00;1.90;;;;;;;11.89;86.60;95627.72;4348752;32;20185;-60
2023/04/30 01:42:32;;;;;;;1.63;1.63;;;;;;;11.66;87.67;95634.72;4363139;32;20241;-60
2023/04/30 01:46:09;;;;;;;1.07;1.07;;;;;;;11.79;87.25;95639.34;4342055;32;20236;-60
2023/04/30 01:49:09;;;;;;;1.17;1.17;;;;;;;11.92;86.68;95633.25;4279903;33;20185;-59
2023/04/30 01:51:40;;;;;;;1.70;1.60;;;;;;;11.91;86.51;95630.88;4316987;33;20371;-59
2023/04/30 01:54:27;;;;;;;1.90;1.80;;;;;;;11.76;86.90;95626.63;4296715;33;20208;-59
2023/04/30 01:57:16;;;;;;;3.30;1.97;;;;;;;11.70;87.35;95641.03;4305164;33;20204;-60
2023/04/30 01:59:44;;;;;;;1.90;1.83;;;;;;;11.63;87.83;95636.13;4273522;33;20241;-59
2023/04/30 02:02:12;;;;;;;1.30;1.30;;;;;;;11.74;87.36;95628.75;4313914;33;20189;-60
2023/04/30 02:04:38;;;;;;;1.63;1.63;;;;;;;11.78;87.00;95623.69;4308473;33;20185;-59
2023/04/30 02:07:04;;;;;;;1.63;1.37;;;;;;;11.73;86.80;95623.72;4349048;32;20208;-61
2023/04/30 02:09:31;;;;;;;2.03;1.93;;;;;;;11.71;86.76;95622.16;4372174;32;20225;-60
2023/04/30 02:11:58;;;;;;;1.10;1.10;;;;;;;11.71;86.95;95622.16;4343098;32;20276;-58
2023/04/30 02:14:24;;;;;;;1.60;1.57;;;;;;;11.63;87.08;95624.72;4344685;32;20203;-59
2023/04/30 02:16:51;;;;;;;2.43;2.33;;;;;;;11.55;87.61;95628.03;4331202;32;20251;-59
2023/04/30 02:19:18;;;;;;;1.77;1.67;;;;;;;11.60;87.73;95630.59;4346974;32;20205;-59
2023/04/30 02:21:46;;;;;;;1.80;1.70;;;;;;;11.60;87.39;95633.25;4358316;32;20180;-59
2023/04/30 02:24:13;;;;;;;1.50;1.40;;;;;;;11.59;87.72;95631.69;4350441;32;20247;-59
2023/04/30 02:26:40;;;;;;;1.77;1.10;;;;;;;11.48;88.22;95638.22;4379516;32;20285;-59
2023/04/30 02:29:07;;;;;;;1.43;1.43;;;;;;;11.54;87.92;95640.53;4362743;32;20196;-59
2023/04/30 02:31:32;;;;;;;1.63;1.53;;;;;;;11.66;87.69;95635.53;4331462;32;20246;-59
2023/04/30 02:34:00;;;;;;;1.50;1.50;;;;;;;11.64;87.23;95639.53;4329191;32;20193;-59
2023/04/30 02:36:26;;;;;;;3.07;2.87;;;;;;;11.53;87.68;95635.50;4361024;32;20246;-60
2023/04/30 02:38:53;;;;;;;2.17;2.07;;;;;;;11.50;87.64;95642.19;4362925;32;20186;-59
2023/04/30 02:41:20;;;;;;;1.27;1.27;;;;;;;11.56;87.47;95645.53;4361274;32;20183;-59
2023/04/30 02:43:47;;;;;;;2.23;2.03;;;;;;;11.51;87.72;95638.44;4380030;32;20196;-59
2023/04/30 02:46:12;;;;;;;2.37;2.17;;;;;;;11.58;87.51;95638.88;4332839;32;20181;-59
2023/04/30 02:48:40;;;;;;;1.73;1.63;;;;;;;11.67;87.13;95636.31;4361165;32;20234;-60
2023/04/30 02:51:05;;;;;;;1.23;1.20;;;;;;;11.46;87.56;95643.81;4344404;32;20190;-60
2023/04/30 02:53:36;;;;;;;2.60;2.50;;;;;;;11.52;87.67;95645.34;4372931;32;20192;-59
2023/04/30 02:56:01;;;;;;;0.70;0.70;;;;;;;11.55;87.65;95644.75;4362671;32;20181;-59
2023/04/30 02:58:27;;;;;;;1.60;1.60;;;;;;;11.48;87.52;95647.00;4355651;32;20186;-59
2023/04/30 03:00:55;;;;;;;1.50;1.50;;;;;;;11.44;87.64;95647.84;4370927;32;20192;-59
2023/04/30 03:03:20;;;;;;;2.50;2.40;;;;;;;11.46;87.87;95657.13;4343097;32;20223;-59
2023/04/30 03:05:46;;;;;;;2.47;1.33;;;;;;;11.37;87.80;95650.91;4352823;32;20224;-59
2023/04/30 03:08:11;;;;;;;1.53;1.53;;;;;;;11.26;88.69;95657.44;4353262;32;20251;-59
2023/04/30 03:10:37;;;;;;;2.23;2.13;;;;;;;11.20;88.88;95655.94;4365842;32;20215;-60
2023/04/30 03:13:05;;;;;;;1.50;1.50;;;;;;;11.22;88.57;95656.44;4346492;32;20177;-59
2023/04/30 03:15:35;;;;;;;2.00;1.90;;;;;;;11.23;88.59;95647.38;4321618;32;20181;-59
2023/04/30 03:18:02;;;;;;;3.43;1.73;;;;;;;11.25;88.00;95646.00;4339491;32;20197;-60
2023/04/30 03:20:29;;;;;;;1.53;1.53;;;;;;;11.26;88.03;95646.81;4344566;32;20199;-59
2023/04/30 03:22:57;;;;;;;1.33;1.33;;;;;;;11.27;88.16;95643.06;4351579;32;26113;-59
2023/04/30 03:25:22;;;;;;;1.93;1.83;;;;;;;11.26;87.95;95630.88;4327226;32;20198;-59
2023/04/30 03:27:49;;;;;;;2.17;1.97;;;;;;;11.25;88.04;95642.56;4369002;32;20245;-59
2023/04/30 03:30:19;;;;;;;1.17;1.17;;;;;;;11.28;87.57;95639.34;4375304;32;20177;-59
2023/04/30 03:32:49;;;;;;;2.43;2.23;;;;;;;11.26;87.59;95636.19;4356670;32;20271;-59
2023/04/30 03:35:15;;;;;;;2.50;2.40;;;;;;;11.17;87.71;95632.63;4367054;32;20226;-62
2023/04/30 03:37:42;;;;;;;1.23;1.23;;;;;;;11.18;87.97;95627.03;4349459;32;20223;-59
2023/04/30 03:40:08;;;;;;;1.73;1.67;;;;;;;11.20;87.75;95627.53;4367461;32;20184;-59
2023/04/30 03:42:34;;;;;;;1.33;1.33;;;;;;;11.15;87.85;95624.94;4333652;32;20235;-59
2023/04/30 03:45:01;;;;;;;2.07;1.97;;;;;;;11.14;88.10;95622.56;4352374;32;20185;-59
2023/04/30 03:47:29;;;;;;;2.20;2.10;;;;;;;11.19;87.67;95625.16;4348732;32;20357;-59
2023/04/30 03:49:58;;;;;;;2.53;2.43;;;;;;;11.16;87.92;95620.41;4356331;32;20258;-61
2023/04/30 03:52:25;;;;;;;2.17;2.07;;;;;;;11.19;87.20;95625.94;4354124;32;20239;-59
2023/04/30 03:54:52;;;;;;;2.70;2.60;;;;;;;11.18;87.10;95628.88;4361806;32;20301;-61
2023/04/30 03:57:17;;;;;;;1.50;1.40;;;;;;;11.09;87.38;95619.97;4367241;32;20193;-61
2023/04/30 03:59:45;;;;;;;2.30;2.20;;;;;;;11.09;87.59;95614.69;4329226;32;20181;-59
2023/04/30 04:02:13;;;;;;;1.80;1.77;;;;;;;11.13;86.90;95619.13;4370074;32;20242;-59
2023/04/30 04:04:40;;;;;;;2.10;2.03;;;;;;;11.10;87.30;95618.91;4350575;32;20184;-60
2023/04/30 04:07:10;;;;;;;1.63;1.60;;;;;;;11.08;87.56;95621.84;4339757;32;20216;-60
2023/04/30 04:09:36;;;;;;;2.67;2.57;;;;;;;11.07;87.46;95624.78;4366169;32;20199;-60
2023/04/30 04:12:08;;;;;;;1.90;1.80;;;;;;;11.05;87.42;95627.72;4348073;32;20201;-59
2023/04/30 04:14:35;;;;;;;1.37;1.37;;;;;;;11.06;87.10;95631.19;4342910;32;20203;-60
2023/04/30 04:17:04;;;;;;;1.87;1.77;;;;;;;11.02;87.46;95623.78;4340521;32;20177;-59
2023/04/30 04:19:31;;;;;;;2.03;1.93;;;;;;;10.92;87.69;95623.94;4358072;32;20198;-59
2023/04/30 04:21:57;;;;;;;1.60;1.60;;;;;;;11.02;88.13;95623.78;4349175;32;20203;-59
2023/04/30 04:24:27;;;;;;;1.03;1.03;;;;;;;11.07;87.76;95635.41;4364648;32;20188;-59
2023/04/30 04:26:52;;;;;;;1.47;1.47;;;;;;;11.11;87.37;95636.41;4329079;32;20182;-59
2023/04/30 04:29:18;;;;;;;1.97;1.97;;;;;;;11.01;87.42;95635.47;4354494;32;20176;-59
2023/04/30 04:31:47;;;;;;;2.20;2.10;;;;;;;10.99;87.46;95642.97;4368067;32;20184;-59
2023/04/30 04:34:14;;;;;;;2.20;2.10;;;;;;;11.04;87.58;95644.75;4362318;32;20201;-59
2023/04/30 04:36:41;;;;;;;1.37;1.37;;;;;;;11.11;86.94;95655.00;4347341;32;20202;-59
2023/04/30 04:39:07;;;;;;;2.13;2.03;;;;;;;10.98;87.65;95645.91;4370751;32;20172;-60
2023/04/30 04:41:34;;;;;;;1.23;1.23;;;;;;;10.97;87.93;95645.12;4359581;32;20220;-59
2023/04/30 04:44:04;;;;;;;1.70;1.70;;;;;;;11.06;88.05;95652.41;4377953;32;20191;-59
2023/04/30 04:46:31;;;;;;;3.67;2.87;;;;;;;11.03;87.95;95662.53;4323551;32;20203;-59
2023/04/30 04:48:58;;;;;;;1.07;1.07;;;;;;;11.17;87.33;95661.81;4347633;32;20199;-59
2023/04/30 04:51:27;;;;;;;2.83;2.63;;;;;;;11.22;87.13;95665.19;4353638;32;20181;-59
2023/04/30 04:53:54;;;;;;;2.63;2.53;;;;;;;11.03;87.82;95654.56;4361515;32;20193;-59
2023/04/30 04:56:20;;;;;;;7.93;2.03;;;;;;;11.12;87.53;95652.06;4378514;32;20299;-59
2023/04/30 04:58:48;;;;;;;1.90;1.80;;;;;;;10.97;87.62;95661.03;4353028;32;20193;-59
2023/04/30 05:01:14;;;;;;;2.93;2.73;;;;;;;10.93;87.92;95659.25;4334691;32;20208;-59
2023/04/30 05:03:41;;;;;;;1.87;1.77;;;;;;;10.83;88.52;95665.47;4369309;32;20239;-59
2023/04/30 05:06:08;;;;;;;2.27;1.87;;;;;;;10.74;89.22;95661.09;4358703;32;20208;-60
2023/04/30 05:08:39;;;;;;;2.43;2.33;;;;;;;10.79;89.25;95664.47;4358913;32;20260;-59
2023/04/30 05:11:05;;;;;;;1.93;1.83;;;;;;;10.95;89.18;95663.19;4359502;32;20178;-59
2023/04/30 05:13:31;;;;;;;3.07;2.77;;;;;;;11.14;88.45;95667.72;4309742;32;20208;-59
2023/04/30 05:15:56;;;;;;;5.13;3.33;;;;;;;11.01;87.88;95671.87;4365276;32;20284;-59
2023/04/30 05:18:24;;;;;;;4.70;2.90;;;;;;;10.96;88.54;95675.38;4372177;32;20180;-59
2023/04/30 05:20:50;;;;;;;1.83;1.73;;;;;;;10.95;88.48;95673.81;4330757;32;20323;-59
2023/04/30 05:23:19;;;;;;;2.17;2.07;;;;;;;11.05;88.44;95677.38;4365514;32;20234;-59
2023/04/30 05:25:59;;;;;;;2.20;2.10;;;;;;;11.10;87.99;95677.31;4357370;32;20197;-59
2023/04/30 05:28:26;;;;;;;2.90;2.70;;;;;;;11.16;87.36;95678.84;4373701;32;20197;-59
2023/04/30 05:30:53;;;;;;;2.70;2.60;;;;;;;11.20;87.22;95679.84;4347710;32;20188;-59
2023/04/30 05:33:20;;;;;;;1.83;1.83;;;;;;;11.13;87.48;95687.37;4350827;32;20195;-59
2023/04/30 05:35:48;;;;;;;5.13;2.43;;;;;;;11.09;87.81;95684.50;4344988;32;20195;-59
2023/04/30 05:38:16;;;;;;;2.60;2.50;;;;;;;11.18;87.65;95677.47;4326945;32;20227;-59
2023/04/30 05:40:42;;;;;;;2.47;2.37;;;;;;;11.13;87.70;95682.06;4373946;32;20230;-59
2023/04/30 05:43:10;;;;;;;2.77;2.60;;;;;;;11.07;87.76;95688.50;4371071;32;20271;-60
2023/04/30 05:45:36;;;;;;;2.40;2.30;;;;;;;11.17;87.74;95680.41;4368210;32;20186;-59
2023/04/30 05:48:02;;;;;;;2.40;2.23;;;;;;;11.16;87.76;95684.16;4341698;32;20207;-59
2023/04/30 05:50:27;;;;;;;1.90;1.80;;;;;;;11.38;86.91;95684.34;4347855;32;20188;-59
2023/04/30 05:52:54;;;;;;;2.53;2.43;;;;;;;11.29;87.19;95678.09;4376838;32;20197;-59
2023/04/30 05:55:21;;;;;;;2.07;1.97;;;;;;;11.43;86.58;95676.28;4333022;32;20236;-59
2023/04/30 05:57:48;;;;;;;2.50;2.33;;;;;;;11.52;86.47;95677.22;4353957;32;20185;-59
2023/04/30 06:00:15;;;;;;;2.07;1.97;;;;;;;11.36;87.05;95678.53;4357524;32;20202;-59
2023/04/30 06:02:40;;;;;;;2.47;2.37;;;;;;;11.26;87.11;95678.66;4381319;32;20176;-59
2023/04/30 06:05:26;;;;;;;6.17;2.00;;;;;;;11.25;86.90;95677.09;4359271;32;20197;-59
2023/04/30 06:07:52;;;;;;;1.93;1.83;;;;;;;11.18;87.47;95682.00;4353731;32;20184;-59
2023/04/30 06:10:20;;;;;;;2.20;2.00;;;;;;;11.28;87.15;95684.50;4377850;32;20216;-59
2023/04/30 06:12:45;;;;;;;3.17;2.83;;;;;;;11.10;87.54;95685.28;4359885;32;20185;-60
2023/04/30 06:15:12;;;;;;;1.70;1.70;;;;;;;11.12;88.17;95677.81;4377930;32;20192;-59
2023/04/30 06:17:38;;;;;;;3.20;2.47;;;;;;;11.18;87.90;95672.16;4362333;32;20337;-59
2023/04/30 06:20:05;;;;;;;2.30;2.10;;;;;;;11.35;87.75;95671.63;4340558;32;20189;-59
2023/04/30 06:22:33;;;;;;;2.17;2.07;;;;;;;11.41;86.56;95675.81;4366360;32;20184;-59
2023/04/30 06:24:59;;;;;;;2.63;2.50;;;;;;;11.34;86.53;95675.38;4359134;32;20263;-59
2023/04/30 06:27:31;;;;;;;1.97;1.97;;;;;;;11.33;86.87;95674.59;4337317;32;20189;-59
2023/04/30 06:29:59;;;;;;;3.63;2.03;;;;;;;11.41;86.38;95670.50;4360734;32;20957;-59
2023/04/30 06:32:27;;;;;;;2.03;1.93;;;;;;;11.65;85.36;95665.84;4351160;32;20243;-59
2023/04/30 06:34:54;;;;;;;1.70;1.70;;;;;;;11.70;84.61;95667.62;4345886;32;20220;-60
2023/04/30 06:37:20;;;;;;;2.37;2.27;;;;;;;11.70;84.81;95665.75;4359646;32;20239;-60
2023/04/30 06:39:48;;;;;;;1.97;1.87;;;;;;;11.83;84.81;95669.56;4351281;32;20205;-60
2023/04/30 06:42:16;;;;;;;2.00;1.90;;;;;;;12.01;83.43;95670.59;4337199;32;20234;-60
2023/04/30 06:44:46;;;;;;;1.70;1.70;;;;;;;12.03;83.27;95666.56;4365833;32;20300;-60
2023/04/30 06:47:11;;;;;;;7.20;2.93;;;;;;;12.07;82.96;95665.94;4347120;32;20189;-61
2023/04/30 06:49:38;;;;;;;2.37;2.23;;;;;;;11.88;82.85;95674.00;4331126;32;20204;-61
2023/04/30 06:52:06;;;;;;;20.77;7.13;;;;;;;11.64;84.89;95669.56;4370984;32;20219;-61
2023/04/30 06:54:33;;;;;;;6.30;5.70;;;;;;;11.91;86.63;95662.78;4336608;32;20260;-61
2023/04/30 06:57:00;;;;;;;4.37;3.40;;;;;;;12.61;86.65;95675.84;4357234;32;20264;-61
2023/04/30 06:59:26;;;;;;;2.97;2.77;;;;;;;13.02;81.03;95671.25;4330085;32;20252;-61
2023/04/30 07:01:51;;;;;;;2.93;2.53;;;;;;;13.52;79.86;95668.53;4362747;32;20185;-61
2023/04/30 07:04:23;;;;;;;2.27;2.17;;;;;;;13.85;80.29;95671.72;4346739;32;20215;-61
2023/04/30 07:06:50;;;;;;;1.87;1.77;;;;;;;13.91;77.16;95669.72;4360173;32;20223;-61
2023/04/30 07:09:16;;;;;;;2.43;1.97;;;;;;;14.34;76.38;95668.03;4353775;32;20169;-61
2023/04/30 07:11:41;;;;;;;2.60;2.40;;;;;;;14.60;76.09;95670.03;4352485;32;20189;-61
2023/04/30 07:14:08;;;;;;;1.40;1.40;;;;;;;14.85;75.16;95666.66;4319296;32;20220;-61
2023/04/30 07:16:36;;;;;;;2.63;2.43;;;;;;;14.85;72.67;95658.66;4372224;32;20238;-61
2023/04/30 07:19:02;;;;;;;7.60;2.17;;;;;;;14.91;72.96;95668.09;4305114;32;20228;-60
2023/04/30 07:21:31;;;;;;;2.23;2.13;;;;;;;15.13;71.91;95667.97;4352709;32;20203;-61
2023/04/30 07:23:57;;;;;;;7.10;5.73;;;;;;;15.05;70.93;95671.41;4320033;32;20231;-61
2023/04/30 07:26:25;;;;;;;2.97;2.77;;;;;;;15.22;75.19;95665.28;4342988;32;20220;-61
2023/04/30 07:28:51;;;;;;;4.23;3.77;;;;;;;15.13;73.07;95659.16;4353523;32;20242;-60
2023/04/30 07:31:19;;;;;;;2.10;2.00;;;;;;;14.28;74.18;95663.94;4364189;32;20185;-61
2023/04/30 07:33:45;;;;;;;1.60;1.57;;;;;;;13.19;76.01;95664.50;4348549;32;20200;-62
2023/04/30 07:36:12;;;;;;;4.27;3.87;;;;;;;12.91;77.69;95666.41;4361894;32;20268;-61
2023/04/30 07:38:41;;;;;;;2.20;2.10;;;;;;;13.35;79.26;95663.84;4331049;32;20264;-59
2023/04/30 07:41:08;;;;;;;1.87;1.77;;;;;;;13.08;77.44;95675.38;4358184;32;20204;-60
2023/04/30 07:43:36;;;;;;;2.13;1.93;;;;;;;13.03;77.70;95670.16;4305827;32;20196;-60
2023/04/30 07:46:02;;;;;;;1.97;1.70;;;;;;;12.99;77.68;95666.50;4340690;32;20246;-60
2023/04/30 07:48:29;;;;;;;1.40;1.40;;;;;;;12.91;78.04;95664.53;4333577;32;20242;-60
2023/04/30 07:50:56;;;;;;;1.57;1.50;;;;;;;12.92;78.32;95660.78;4341171;32;20251;-60
2023/04/30 07:53:26;;;;;;;0.93;0.93;;;;;;;12.95;78.40;95654.09;4372084;32;20188;-60
2023/04/30 07:55:53;;;;;;;1.77;1.67;;;;;;;12.98;78.03;95664.13;4377585;32;20196;-59
2023/04/30 07:58:18;;;;;;;2.00;1.90;;;;;;;12.96;78.19;95656.44;4372948;32;20188;-59
2023/04/30 08:00:45;;;;;;;1.03;1.03;;;;;;;12.96;78.21;95663.66;4352311;32;20184;-59
2023/04/30 08:03:13;;;;;;;1.50;1.50;;;;;;;12.99;78.17;95663.06;4357165;32;20246;-60
2023/04/30 08:05:38;;;;;;;1.77;1.70;;;;;;;13.09;78.06;95654.84;4364073;32;20285;-61
2023/04/30 08:08:06;;;;;;;1.47;1.47;;;;;;;13.08;78.43;95659.41;4372145;32;20196;-59
2023/04/30 08:10:36;;;;;;;1.23;1.23;;;;;;;13.09;78.98;95660.19;4353122;32;20252;-59
2023/04/30 08:13:05;;;;;;;2.03;1.97;;;;;;;13.22;77.98;95664.69;4355224;32;20188;-60
2023/04/30 08:15:38;;;;;;;1.73;1.63;;;;;;;13.27;77.80;95664.59;4359617;32;20347;-59
2023/04/30 08:18:05;;;;;;;2.13;2.03;;;;;;;13.22;77.80;95658.59;4350032;32;20236;-59
2023/04/30 08:20:31;;;;;;;1.87;1.77;;;;;;;13.26;78.17;95659.56;4371517;32;20264;-59
2023/04/30 08:22:58;;;;;;;1.20;1.20;;;;;;;13.35;78.18;95653.19;4333648;32;21975;-59
2023/04/30 08:25:24;;;;;;;1.97;1.90;;;;;;;13.38;77.65;95657.13;4360228;32;20184;-59
2023/04/30 08:27:50;;;;;;;1.37;1.37;;;;;;;13.53;76.68;95661.31;4354663;32;20511;-59
2023/04/30 08:30:17;;;;;;;1.93;1.83;;;;;;;13.62;76.40;95654.16;4364105;32;20192;-59
2023/04/30 08:32:43;;;;;;;1.17;1.17;;;;;;;13.71;75.87;95655.03;4381518;32;20181;-59
2023/04/30 08:35:10;;;;;;;1.73;1.73;;;;;;;13.76;75.61;95660.22;4357736;32;20214;-60
2023/04/30 08:37:38;;;;;;;1.20;1.20;;;;;;;13.72;75.79;95660.03;4375049;32;20195;-59
2023/04/30 08:40:08;;;;;;;1.20;1.20;;;;;;;13.69;76.26;95658.00;4359426;32;20188;-59
2023/04/30 08:42:43;;;;;;;1.50;1.50;;;;;;;13.73;77.02;95663.47;4325752;32;20186;-59
2023/04/30 08:45:33;;;;;;;2.53;2.43;;;;;;;13.67;75.90;95659.38;4342121;32;20238;-60
2023/04/30 08:48:00;;;;;;;2.17;2.07;;;;;;;13.42;77.13;95663.44;4365990;32;20240;-59
2023/04/30 08:50:30;;;;;;;3.20;3.00;;;;;;;13.51;76.96;95653.62;4377483;32;20255;-59
2023/04/30 08:52:59;;;;;;;1.17;1.17;;;;;;;13.66;76.06;95655.94;4357100;32;20216;-59
2023/04/30 08:55:29;;;;;;;1.90;1.80;;;;;;;13.75;75.79;95656.75;4344227;32;20256;-59
2023/04/30 08:57:56;;;;;;;1.10;1.10;;;;;;;13.82;74.94;95658.22;4354260;32;20189;-59
2023/04/30 09:00:23;;;;;;;4.47;1.70;;;;;;;13.75;75.62;95663.97;4348223;32;20257;-59
2023/04/30 09:02:49;;;;;;;1.77;1.67;;;;;;;13.78;74.33;95663.38;4335494;32;20195;-59
2023/04/30 09:05:16;;;;;;;2.10;2.00;;;;;;;13.93;73.19;95667.53;4362782;32;20216;-60
2023/04/30 09:07:44;;;;;;;1.27;1.27;;;;;;;14.00;72.80;95668.66;4364603;32;20208;-59
2023/04/30 09:10:21;;;;;;;0.90;0.90;;;;;;;14.10;72.15;95663.09;4334842;32;20257;-59
2023/04/30 09:13:04;;;;;;;0.90;0.90;;;;;;;14.18;72.01;95658.88;4362980;32;20189;-59
2023/04/30 09:15:30;;;;;;;1.20;1.20;;;;;;;14.04;72.17;95655.50;4340439;32;20297;-59
2023/04/30 09:18:16;;;;;;;1.30;1.30;;;;;;;13.98;72.46;95668.19;4356427;32;20208;-59
2023/04/30 09:21:00;;;;;;;1.33;1.23;;;;;;;14.07;71.78;95653.03;4344406;32;20207;-59
2023/04/30 09:23:28;;;;;;;1.40;1.40;;;;;;;14.08;71.95;95662.59;4330291;32;20207;-59
2023/04/30 09:25:56;;;;;;;1.07;1.07;;;;;;;14.21;72.15;95663.59;4359324;32;20195;-60
2023/04/30 09:28:25;;;;;;;1.60;1.50;;;;;;;14.30;71.92;95661.75;4360828;32;20193;-59
2023/04/30 09:30:52;;;;;;;1.30;1.30;;;;;;;14.35;72.08;95669.59;4320573;32;20193;-59
2023/04/30 09:33:17;;;;;;;1.10;1.10;;;;;;;14.26;70.28;95670.69;4350163;32;20242;-59
2023/04/30 09:35:43;;;;;;;1.20;1.20;;;;;;;14.21;71.13;95658.25;4330622;32;20189;-59
2023/04/30 09:38:31;;;;;;;4.63;1.37;;;;;;;14.30;70.95;95669.75;4335168;32;20204;-60
2023/04/30 09:41:25;;;;;;;1.20;1.20;;;;;;;14.22;71.10;95661.72;4311848;32;20185;-59
2023/04/30 09:43:54;;;;;;;0.73;0.73;;;;;;;14.22;70.16;95665.16;4359855;32;20216;-59
2023/04/30 09:46:28;;;;;;;1.40;1.40;;;;;;;14.22;69.98;95662.50;4354961;32;20210;-59
2023/04/30 09:49:01;;;;;;;1.83;1.73;;;;;;;14.16;68.68;95682.41;4384788;32;20203;-59
2023/04/30 09:51:26;;;;;;;1.00;1.00;;;;;;;14.13;69.37;95680.37;4361276;32;20200;-59
2023/04/30 09:53:55;;;;;;;1.97;1.90;;;;;;;13.99;69.80;95675.09;4329213;32;20185;-59
2023/04/30 09:56:25;;;;;;;1.37;1.37;;;;;;;14.00;70.20;95668.66;4366361;32;20269;-59
2023/04/30 09:58:55;;;;;;;1.43;1.43;;;;;;;14.13;70.04;95667.03;4356324;32;20228;-58
2023/04/30 10:01:26;;;;;;;1.43;1.33;;;;;;;14.14;70.50;95665.91;4354183;32;20185;-59
2023/04/30 10:03:52;;;;;;;1.13;1.13;;;;;;;14.20;70.76;95664.69;4348158;32;20251;-59
2023/04/30 10:06:22;;;;;;;1.70;1.60;;;;;;;14.30;70.31;95669.75;4376056;32;20251;-59
2023/04/30 10:08:55;;;;;;;1.30;1.30;;;;;;;14.30;68.92;95667.09;4372637;32;20197;-59
2023/04/30 10:11:30;;;;;;;1.20;1.20;;;;;;;14.36;69.19;95665.06;4361958;32;20284;-59
2023/04/30 10:14:09;;;;;;;1.13;1.13;;;;;;;14.42;69.25;95670.00;4348282;32;20211;-59
2023/04/30 10:16:51;;;;;;;1.87;1.77;;;;;;;14.35;69.85;95658.94;4336205;32;20207;-59
2023/04/30 10:19:34;;;;;;;1.10;1.10;;;;;;;14.47;69.83;95658.41;4334982;32;20189;-59
2023/04/30 10:22:06;;;;;;;1.93;1.93;;;;;;;14.57;69.37;95649.28;4351689;32;20194;-60
2023/04/30 10:24:35;;;;;;;1.50;1.50;;;;;;;14.61;69.24;95651.03;4348533;32;20250;-59
2023/04/30 10:27:02;;;;;;;4.53;2.07;;;;;;;14.63;69.69;95646.19;4325032;32;20275;-59
2023/04/30 10:29:28;;;;;;;1.87;1.77;;;;;;;14.67;68.08;95643.69;4319547;32;20198;-59
2023/04/30 10:32:03;;;;;;;1.37;1.37;;;;;;;14.61;68.23;95636.91;4284783;32;20255;-59
2023/04/30 10:34:48;;;;;;;1.10;1.10;;;;;;;14.75;68.65;95635.69;4285154;32;20292;-59
2023/04/30 10:37:46;;;;;;;7.57;1.47;;;;;;;14.80;64.50;95634.75;4357215;32;20184;-59
2023/04/30 10:40:13;;;;;;;1.37;1.33;;;;;;;14.76;65.77;95641.81;4321406;32;20240;-60
2023/04/30 10:42:47;;;;;;;2.27;2.17;;;;;;;14.77;66.96;95638.81;4352438;32;20212;-59
2023/04/30 10:45:36;;;;;;;2.47;1.97;;;;;;;14.84;65.94;95625.00;4341166;32;20192;-59
2023/04/30 10:48:04;;;;;;;7.70;2.10;;;;;;;14.87;67.29;95627.06;4356273;32;20188;-59
2023/04/30 10:50:41;;;;;;;1.30;1.20;;;;;;;15.00;66.72;95620.78;4328375;32;20286;-60
2023/04/30 10:53:17;;;;;;;0.83;0.83;;;;;;;15.08;65.99;95628.03;4310800;32;20181;-59
2023/04/30 10:55:52;;;;;;;1.37;1.30;;;;;;;14.95;66.04;95623.63;4338775;32;20199;-60
2023/04/30 10:58:29;;;;;;;1.23;1.23;;;;;;;15.02;66.02;95615.12;4300144;32;20271;-60
2023/04/30 11:01:18;;;;;;;1.00;1.00;;;;;;;15.15;65.76;95621.44;4287410;32;20189;-59
2023/04/30 11:04:08;;;;;;;0.97;0.97;;;;;;;15.12;64.61;95615.62;4363064;32;20181;-62
2023/04/30 11:06:55;;;;;;;0.97;0.97;;;;;;;15.08;64.96;95611.22;4336160;32;20204;-59
2023/04/30 11:09:44;;;;;;;1.17;1.17;;;;;;;15.11;66.05;95611.37;4365878;32;20192;-59
2023/04/30 11:12:27;;;;;;;0.97;0.97;;;;;;;15.19;64.41;95611.66;4325865;32;20193;-60
2023/04/30 11:15:18;;;;;;;2.13;1.10;;;;;;;15.09;64.37;95608.22;4347050;32;20188;-59
2023/04/30 11:17:47;;;;;;;0.67;0.67;;;;;;;15.22;64.38;95603.03;4366537;32;20230;-59
2023/04/30 11:20:18;;;;;;;1.23;0.73;;;;;;;15.22;63.90;95595.78;4320761;32;20179;-60
2023/04/30 11:22:44;;;;;;;1.10;1.10;;;;;;;15.24;63.08;95601.59;4347793;32;20261;-60
2023/04/30 11:25:12;;;;;;;3.30;2.33;;;;;;;15.34;63.37;95598.62;4324891;32;20185;-61
2023/04/30 11:27:44;;;;;;;1.30;1.30;;;;;;;15.41;62.81;95603.47;4307946;32;20185;-60
2023/04/30 11:30:16;;;;;;;1.07;1.07;;;;;;;15.28;63.17;95599.09;4318266;32;20206;-60
2023/04/30 11:32:53;;;;;;;1.67;1.63;;;;;;;15.13;63.45;95601.16;4333707;32;20189;-61
2023/04/30 11:35:18;;;;;;;1.93;1.83;;;;;;;15.07;63.52;95605.06;4382480;32;20247;-59
2023/04/30 11:37:44;;;;;;;0.97;0.97;;;;;;;15.05;63.15;95604.59;4332443;32;20193;-60
2023/04/30 11:40:14;;;;;;;1.17;1.17;;;;;;;15.02;63.16;95596.41;4359377;32;20251;-61
2023/04/30 11:42:47;;;;;;;0.87;0.87;;;;;;;15.12;62.97;95591.56;4319456;32;20192;-60
2023/04/30 11:45:22;;;;;;;1.70;1.60;;;;;;;15.10;62.84;95599.09;4374161;32;20193;-59
2023/04/30 11:47:50;;;;;;;0.93;0.93;;;;;;;14.97;63.14;95588.56;4344873;32;20221;-59